Teddy Meyer — WDF9635 — position and weather

sailwx.info

Track history (hours):
 
Tides and Currents Weather Stations Pressure Air Temp Water Temp Dewpoint Dewpoint Depression Visibility Wind Speed Wind Dir Waves Ship Positions

Teddy Meyer

Owner: LeBeouf Bros. Towing, LLC, Houma, LA. More information available from US FCC via Universal Licensing System and Coast Guard Vessel Documentation Center.

Last reported at 2015-Mar-07 17:05 UTC. Time now 2015-Apr-01 17:56 UTC.
Position N 29°27' W 094°51'.
Warning: this ship's position is 25 days out of date.

; draft 3 m.

MMSI: 367507220.

Date/timePositionNaut miles runAvg speedWind from/ knotsBaromVisibWave heightAir tempDewpointWater temp
2015-Mar-07 17:05N 29°27' W 094°51'4 8.1
2015-Mar-07 16:33N 29°31' W 094°53'8 7.8
2015-Mar-07 15:33N 29°37' W 094°58'7 7.0
2015-Mar-07 14:33N 29°44' W 095°01'5 4.7
2015-Mar-07 13:33N 29°44' W 095°07'5 4.9
2015-Mar-07 12:27N 29°44' W 095°13'1 0.6
2015-Mar-07 11:33N 29°44' W 095°13'0 0.0
2015-Mar-07 10:32N 29°44' W 095°13'0 0.0
2015-Mar-07 09:32N 29°44' W 095°13'0 0.0
2015-Mar-07 00:03N 29°44' W 095°13'0 0.0
2015-Mar-06 20:13N 29°44' W 095°13'0 0.0
2015-Mar-06 19:33N 29°44' W 095°13'0 0.0
2015-Mar-06 18:33N 29°44' W 095°13'0 0.0
2015-Mar-06 17:33N 29°44' W 095°13'0 0.0
2015-Mar-06 16:33N 29°44' W 095°13'0 0.0
2015-Mar-06 15:33N 29°44' W 095°13'0 0.0
2015-Mar-06 14:33N 29°44' W 095°13'0 0.0
2015-Mar-06 13:17N 29°44' W 095°13'4 4.5
2015-Mar-06 12:24N 29°44' W 095°09'5 1.1
2015-Mar-06 08:05N 29°47' W 095°05'1 0.2
2015-Mar-06 03:33N 29°46' W 095°05'1 0.5
2015-Mar-06 01:33N 29°46' W 095°06'0 0.0
2015-Mar-06 00:33N 29°46' W 095°06'0 0.0
2015-Mar-05 23:33N 29°46' W 095°06'0 0.0
2015-Mar-05 22:22N 29°46' W 095°06'1 0.3
2015-Mar-05 20:29N 29°46' W 095°06'1 1.4
2015-Mar-05 19:32N 29°47' W 095°05'0 0.0
2015-Mar-05 18:33N 29°47' W 095°05'0 0.0
2015-Mar-05 17:33N 29°47' W 095°05'0 0.0
2015-Mar-05 16:33N 29°47' W 095°05'0 0.0
2015-Mar-05 15:33N 29°47' W 095°05'0 0.0
2015-Mar-05 14:32N 29°47' W 095°05'1 0.4
2015-Mar-05 12:30N 29°47' W 095°04'0 0.0
2015-Mar-05 11:12N 29°47' W 095°04'0 0.0
2015-Mar-05 09:29N 29°47' W 095°04'0 0.0
2015-Mar-05 05:33N 29°47' W 095°04'0 0.0
2015-Mar-05 04:17N 29°47' W 095°04'0 0.0
2015-Mar-05 03:24N 29°47' W 095°04'0 0.2
2015-Mar-05 02:33N 29°47' W 095°04'1 0.2
2015-Mar-04 21:33N 29°47' W 095°05'0 0.0
2015-Mar-04 20:33N 29°47' W 095°05'0 0.0
2015-Mar-04 19:33N 29°47' W 095°05'0 0.0
2015-Mar-04 18:33N 29°47' W 095°05'0 0.0
2015-Mar-04 17:33N 29°47' W 095°05'0 0.0
2015-Mar-04 16:33N 29°47' W 095°05'0 0.0
2015-Mar-04 15:33N 29°47' W 095°05'0 0.0
2015-Mar-04 14:23N 29°47' W 095°05'1 0.1
2015-Mar-04 06:22N 29°46' W 095°05'4 4.9
2015-Mar-04 05:33N 29°44' W 095°01'4 4.3
2015-Mar-04 04:33N 29°46' W 095°06'1 0.4
2015-Mar-04 01:11N 29°47' W 095°05'0 0.0
2015-Mar-03 17:13N 29°47' W 095°05'4 6.0
2015-Mar-03 16:33N 29°44' W 095°08'4 1.8
2015-Mar-03 14:28N 29°44' W 095°12'0 0.0
2015-Mar-02 14:33N 29°44' W 095°12'1 0.3
2015-Mar-02 09:21N 29°45' W 095°11'4 4.8
2015-Mar-02 08:33N 29°44' W 095°07'4 4.1
2015-Mar-02 07:33N 29°48' W 095°04'2 2.4
2015-Mar-02 06:31N 29°46' W 095°06'0 0.0
2015-Mar-02 05:21N 29°46' W 095°06'0 0.0
2015-Mar-02 04:32N 29°46' W 095°06'0 0.0
2015-Mar-02 03:33N 29°46' W 095°06'0 0.0
2015-Mar-02 02:33N 29°46' W 095°06'0 0.0
2015-Mar-02 01:31N 29°46' W 095°06'0 0.0
2015-Mar-02 00:08N 29°46' W 095°06'0 0.0
2015-Mar-01 23:33N 29°46' W 095°06'0 0.0
2015-Mar-01 22:04N 29°46' W 095°06'0 0.0
2015-Mar-01 21:33N 29°46' W 095°06'0 0.0
2015-Mar-01 20:23N 29°46' W 095°06'0 0.0
2015-Mar-01 19:24N 29°46' W 095°06'0 0.0
2015-Mar-01 18:33N 29°46' W 095°06'0 0.0
2015-Mar-01 17:33N 29°46' W 095°06'0 0.0
2015-Mar-01 16:31N 29°46' W 095°06'0 0.0
2015-Mar-01 15:33N 29°46' W 095°06'0 0.0
2015-Mar-01 14:33N 29°46' W 095°06'0 0.0
2015-Mar-01 13:31N 29°46' W 095°06'0 0.0
2015-Mar-01 12:32N 29°46' W 095°06'0 0.0
2015-Mar-01 11:33N 29°46' W 095°06'0 0.0
2015-Mar-01 10:33N 29°46' W 095°06'0 0.0
2015-Mar-01 09:33N 29°46' W 095°06'0 0.0
2015-Mar-01 08:22N 29°46' W 095°06'0 0.0
2015-Mar-01 07:22N 29°46' W 095°06'0 0.0
2015-Mar-01 06:32N 29°46' W 095°06'0 0.0
2015-Mar-01 05:30N 29°46' W 095°06'0 0.0
2015-Mar-01 04:31N 29°46' W 095°06'0 0.0
2015-Mar-01 03:27N 29°46' W 095°06'0 0.0
2015-Mar-01 02:33N 29°46' W 095°06'0 0.0
2015-Mar-01 01:33N 29°46' W 095°06'0 0.0
2015-Mar-01 00:05N 29°46' W 095°06'0 0.0
2015-Feb-28 23:31N 29°46' W 095°06'0 0.0
2015-Feb-28 21:22N 29°46' W 095°06'0 0.0
2015-Feb-27 19:10N 29°46' W 095°06'0 0.0
2015-Feb-27 18:32N 29°46' W 095°06'0 0.0
2015-Feb-27 17:33N 29°46' W 095°06'0 0.0
2015-Feb-27 16:33N 29°46' W 095°06'0 0.0
2015-Feb-27 15:33N 29°46' W 095°06'0 0.0
2015-Feb-27 14:33N 29°46' W 095°06'0 0.0
2015-Feb-26 14:33N 29°46' W 095°06'  
Track history (hours):
 
Tides and Currents Weather Stations Pressure Air Temp Water Temp Dewpoint Dewpoint Depression Visibility Wind Speed Wind Dir Waves Ship Positions

Teddy Meyer

Owner: LeBeouf Bros. Towing, LLC, Houma, LA. More information available from US FCC via Universal Licensing System and Coast Guard Vessel Documentation Center.

Last reported at 2015-Mar-07 17:05 UTC. Time now 2015-Apr-01 17:56 UTC.
Position N 29°27' W 094°51'.
Warning: this ship's position is 25 days out of date.

; draft 3 m.

MMSI: 367507220.

Date/timePositionNaut miles runAvg speedWind from/ knotsBaromVisibWave heightAir tempDewpointWater temp
2015-Mar-07 17:05N 29°27' W 094°51'4 8.1
2015-Mar-07 16:33N 29°31' W 094°53'8 7.8
2015-Mar-07 15:33N 29°37' W 094°58'7 7.0
2015-Mar-07 14:33N 29°44' W 095°01'5 4.7
2015-Mar-07 13:33N 29°44' W 095°07'5 4.9
2015-Mar-07 12:27N 29°44' W 095°13'1 0.6
2015-Mar-07 11:33N 29°44' W 095°13'0 0.0
2015-Mar-07 10:32N 29°44' W 095°13'0 0.0
2015-Mar-07 09:32N 29°44' W 095°13'0 0.0
2015-Mar-07 00:03N 29°44' W 095°13'0 0.0
2015-Mar-06 20:13N 29°44' W 095°13'0 0.0
2015-Mar-06 19:33N 29°44' W 095°13'0 0.0
2015-Mar-06 18:33N 29°44' W 095°13'0 0.0
2015-Mar-06 17:33N 29°44' W 095°13'0 0.0
2015-Mar-06 16:33N 29°44' W 095°13'0 0.0
2015-Mar-06 15:33N 29°44' W 095°13'0 0.0
2015-Mar-06 14:33N 29°44' W 095°13'0 0.0
2015-Mar-06 13:17N 29°44' W 095°13'4 4.5
2015-Mar-06 12:24N 29°44' W 095°09'5 1.1
2015-Mar-06 08:05N 29°47' W 095°05'1 0.2
2015-Mar-06 03:33N 29°46' W 095°05'1 0.5
2015-Mar-06 01:33N 29°46' W 095°06'0 0.0
2015-Mar-06 00:33N 29°46' W 095°06'0 0.0
2015-Mar-05 23:33N 29°46' W 095°06'0 0.0
2015-Mar-05 22:22N 29°46' W 095°06'1 0.3
2015-Mar-05 20:29N 29°46' W 095°06'1 1.4
2015-Mar-05 19:32N 29°47' W 095°05'0 0.0
2015-Mar-05 18:33N 29°47' W 095°05'0 0.0
2015-Mar-05 17:33N 29°47' W 095°05'0 0.0
2015-Mar-05 16:33N 29°47' W 095°05'0 0.0
2015-Mar-05 15:33N 29°47' W 095°05'0 0.0
2015-Mar-05 14:32N 29°47' W 095°05'1 0.4
2015-Mar-05 12:30N 29°47' W 095°04'0 0.0
2015-Mar-05 11:12N 29°47' W 095°04'0 0.0
2015-Mar-05 09:29N 29°47' W 095°04'0 0.0
2015-Mar-05 05:33N 29°47' W 095°04'0 0.0
2015-Mar-05 04:17N 29°47' W 095°04'0 0.0
2015-Mar-05 03:24N 29°47' W 095°04'0 0.2
2015-Mar-05 02:33N 29°47' W 095°04'1 0.2
2015-Mar-04 21:33N 29°47' W 095°05'0 0.0
2015-Mar-04 20:33N 29°47' W 095°05'0 0.0
2015-Mar-04 19:33N 29°47' W 095°05'0 0.0
2015-Mar-04 18:33N 29°47' W 095°05'0 0.0
2015-Mar-04 17:33N 29°47' W 095°05'0 0.0
2015-Mar-04 16:33N 29°47' W 095°05'0 0.0
2015-Mar-04 15:33N 29°47' W 095°05'0 0.0
2015-Mar-04 14:23N 29°47' W 095°05'1 0.1
2015-Mar-04 06:22N 29°46' W 095°05'4 4.9
2015-Mar-04 05:33N 29°44' W 095°01'4 4.3
2015-Mar-04 04:33N 29°46' W 095°06'1 0.4
2015-Mar-04 01:11N 29°47' W 095°05'0 0.0
2015-Mar-03 17:13N 29°47' W 095°05'4 6.0
2015-Mar-03 16:33N 29°44' W 095°08'4 1.8
2015-Mar-03 14:28N 29°44' W 095°12'0 0.0
2015-Mar-02 14:33N 29°44' W 095°12'1 0.3
2015-Mar-02 09:21N 29°45' W 095°11'4 4.8
2015-Mar-02 08:33N 29°44' W 095°07'4 4.1
2015-Mar-02 07:33N 29°48' W 095°04'2 2.4
2015-Mar-02 06:31N 29°46' W 095°06'0 0.0
2015-Mar-02 05:21N 29°46' W 095°06'0 0.0
2015-Mar-02 04:32N 29°46' W 095°06'0 0.0
2015-Mar-02 03:33N 29°46' W 095°06'0 0.0
2015-Mar-02 02:33N 29°46' W 095°06'0 0.0
2015-Mar-02 01:31N 29°46' W 095°06'0 0.0
2015-Mar-02 00:08N 29°46' W 095°06'0 0.0
2015-Mar-01 23:33N 29°46' W 095°06'0 0.0
2015-Mar-01 22:04N 29°46' W 095°06'0 0.0
2015-Mar-01 21:33N 29°46' W 095°06'0 0.0
2015-Mar-01 20:23N 29°46' W 095°06'0 0.0
2015-Mar-01 19:24N 29°46' W 095°06'0 0.0
2015-Mar-01 18:33N 29°46' W 095°06'0 0.0
2015-Mar-01 17:33N 29°46' W 095°06'0 0.0
2015-Mar-01 16:31N 29°46' W 095°06'0 0.0
2015-Mar-01 15:33N 29°46' W 095°06'0 0.0
2015-Mar-01 14:33N 29°46' W 095°06'0 0.0
2015-Mar-01 13:31N 29°46' W 095°06'0 0.0
2015-Mar-01 12:32N 29°46' W 095°06'0 0.0
2015-Mar-01 11:33N 29°46' W 095°06'0 0.0
2015-Mar-01 10:33N 29°46' W 095°06'0 0.0
2015-Mar-01 09:33N 29°46' W 095°06'0 0.0
2015-Mar-01 08:22N 29°46' W 095°06'0 0.0
2015-Mar-01 07:22N 29°46' W 095°06'0 0.0
2015-Mar-01 06:32N 29°46' W 095°06'0 0.0
2015-Mar-01 05:30N 29°46' W 095°06'0 0.0
2015-Mar-01 04:31N 29°46' W 095°06'0 0.0
2015-Mar-01 03:27N 29°46' W 095°06'0 0.0
2015-Mar-01 02:33N 29°46' W 095°06'0 0.0
2015-Mar-01 01:33N 29°46' W 095°06'0 0.0
2015-Mar-01 00:05N 29°46' W 095°06'0 0.0
2015-Feb-28 23:31N 29°46' W 095°06'0 0.0
2015-Feb-28 21:22N 29°46' W 095°06'0 0.0
2015-Feb-27 19:10N 29°46' W 095°06'0 0.0
2015-Feb-27 18:32N 29°46' W 095°06'0 0.0
2015-Feb-27 17:33N 29°46' W 095°06'0 0.0
2015-Feb-27 16:33N 29°46' W 095°06'0 0.0
2015-Feb-27 15:33N 29°46' W 095°06'0 0.0
2015-Feb-27 14:33N 29°46' W 095°06'0 0.0
2015-Feb-26 14:33N 29°46' W 095°06'  

Dump ship's entire track history